Airfield :
LOGIN :

Register | Disclaimer

   EN    FR    IT 

 










Legend :    VFR   Marginal VFR   IFR   Intensive IFR   Very Intensive IFR
Visi :
Ceiling :
>= 8 km
>= 3000ft
5 to 8 km
1000 to 3000 ft
1500m to 5 km
500 to 1000 ft
800 to 1500m
200 to 500 ft
< 800m
< 200 ft
Symbols :   Thunderstorms  Fog  Heavy snow  Heavy precipitations  Wind > 20 kt
SIGMETs :     Misc.  Thunderstorms  Icing  Turbulence  Mountain Waves  Volcanic Ashes






- Airport Elevation : 102 ft
- IATA code : EXT


EGTE - Exeter

CURRENT METAR :
  • 121250Z 22011KT 7000 -RADZ BKN012 10/10 Q0982

EXPIRED METARs :
  • 121220Z 18013KT 6000 -RA BKN012 10/10 Q0982
  • 121150Z 18014KT 9999 5000SW -RA SCT012 BKN016 10/10 Q0983
  • 121120Z 18014KT 4000 -RADZ BR BKN014 10/09 Q0984
  • 121050Z 18013KT 9999 8000SW -RA FEW010 SCT028 09/09 Q0985
  • 121020Z 20016KT 9999 -RA SCT014 SCT020 10/08 Q0986

TAF AMD TAF EGTE
Valid from the 12 at 12:00 until the 12 at 21:00 UTC


121231Z 1212/1221 18013KT 9999 SCT012
BECMG 1212/1214 25010KT
TEMPO 1212/1214 4000 RADZ BKN009
TEMPO 1214/1221 7000 SHRA
PROB30
TEMPO 1214/1221 27015G25KT 4000 +SHRA SHGS BKN009



MET'MAP, your aeronautical weather chart ! - Copyright ORBIFLY December 2007 - Disclaimer

ORBIFLY MET'MAP TEAM :

Programming & Development : Alexandra Zaïnal
Concept & original design : Baudouin d'Aumeries
Assistance for programming : Marc-Olivier Méhu
Technical & hardware support : Manuel Goepfert

Contact : metmap@orbifly.com




SOURCES & CREDITS :

   NOAA